sensor_id;sensor_type;location;lat;lon;timestamp;P1;durP1;ratioP1;P2;durP2;ratioP2
39308;SDS011;26019;47.510;19.122;2022-08-21T00:06:14;8.23;;;6.30;;
39308;SDS011;26019;47.510;19.122;2022-08-21T00:16:16;7.97;;;6.50;;
39308;SDS011;26019;47.510;19.122;2022-08-21T00:26:22;7.10;;;5.70;;
39308;SDS011;26019;47.510;19.122;2022-08-21T00:36:24;7.60;;;6.18;;
39308;SDS011;26019;47.510;19.122;2022-08-21T00:46:26;7.85;;;7.15;;
39308;SDS011;26019;47.510;19.122;2022-08-21T00:56:28;8.80;;;7.90;;
39308;SDS011;26019;47.510;19.122;2022-08-21T01:06:33;8.95;;;8.05;;
39308;SDS011;26019;47.510;19.122;2022-08-21T01:16:36;10.50;;;8.65;;
39308;SDS011;26019;47.510;19.122;2022-08-21T01:26:39;11.40;;;8.80;;
39308;SDS011;26019;47.510;19.122;2022-08-21T01:36:42;10.38;;;9.30;;
39308;SDS011;26019;47.510;19.122;2022-08-21T01:46:45;10.32;;;9.25;;
39308;SDS011;26019;47.510;19.122;2022-08-21T02:06:52;13.48;;;10.65;;
39308;SDS011;26019;47.510;19.122;2022-08-21T02:16:54;13.93;;;10.32;;
39308;SDS011;26019;47.510;19.122;2022-08-21T02:27:09;12.27;;;10.40;;
39308;SDS011;26019;47.510;19.122;2022-08-21T02:37:12;14.00;;;11.48;;
39308;SDS011;26019;47.510;19.122;2022-08-21T02:57:16;17.38;;;12.35;;
39308;SDS011;26019;47.510;19.122;2022-08-21T03:17:19;16.98;;;12.35;;
39308;SDS011;26019;47.510;19.122;2022-08-21T03:27:31;13.67;;;11.37;;
39308;SDS011;26019;47.510;19.122;2022-08-21T03:37:32;15.55;;;11.85;;
39308;SDS011;26019;47.510;19.122;2022-08-21T03:47:34;17.55;;;12.60;;
39308;SDS011;26019;47.510;19.122;2022-08-21T03:57:36;15.38;;;12.48;;
39308;SDS011;26019;47.510;19.122;2022-08-21T04:07:38;15.07;;;12.85;;
39308;SDS011;26019;47.510;19.122;2022-08-21T04:17:40;14.52;;;12.52;;
39308;SDS011;26019;47.510;19.122;2022-08-21T04:27:42;21.38;;;13.30;;
39308;SDS011;26019;47.510;19.122;2022-08-21T04:37:45;16.50;;;13.40;;
39308;SDS011;26019;47.510;19.122;2022-08-21T04:47:48;14.52;;;12.82;;
39308;SDS011;26019;47.510;19.122;2022-08-21T04:57:54;16.15;;;12.60;;
39308;SDS011;26019;47.510;19.122;2022-08-21T05:07:57;15.35;;;12.35;;
39308;SDS011;26019;47.510;19.122;2022-08-21T05:18:03;13.80;;;11.80;;
39308;SDS011;26019;47.510;19.122;2022-08-21T05:28:05;12.57;;;9.10;;
39308;SDS011;26019;47.510;19.122;2022-08-21T05:38:09;12.70;;;10.45;;
39308;SDS011;26019;47.510;19.122;2022-08-21T05:48:19;11.20;;;9.02;;
39308;SDS011;26019;47.510;19.122;2022-08-21T05:58:22;8.90;;;8.00;;
39308;SDS011;26019;47.510;19.122;2022-08-21T06:08:24;9.70;;;7.18;;
39308;SDS011;26019;47.510;19.122;2022-08-21T06:18:27;9.13;;;7.80;;
39308;SDS011;26019;47.510;19.122;2022-08-21T06:28:29;8.18;;;6.93;;
39308;SDS011;26019;47.510;19.122;2022-08-21T06:38:31;7.85;;;6.40;;
39308;SDS011;26019;47.510;19.122;2022-08-21T06:48:36;7.22;;;6.53;;
39308;SDS011;26019;47.510;19.122;2022-08-21T06:58:38;6.70;;;6.10;;
39308;SDS011;26019;47.510;19.122;2022-08-21T07:08:39;13.07;;;5.82;;
39308;SDS011;26019;47.510;19.122;2022-08-21T07:18:43;7.18;;;6.47;;
39308;SDS011;26019;47.510;19.122;2022-08-21T07:28:54;7.15;;;5.47;;
39308;SDS011;26019;47.510;19.122;2022-08-21T07:38:56;6.90;;;5.47;;
39308;SDS011;26019;47.510;19.122;2022-08-21T07:48:58;7.65;;;4.93;;
39308;SDS011;26019;47.510;19.122;2022-08-21T07:59:00;6.85;;;5.43;;
39308;SDS011;26019;47.510;19.122;2022-08-21T08:09:04;6.93;;;5.15;;
39308;SDS011;26019;47.510;19.122;2022-08-21T08:19:05;5.72;;;5.00;;
39308;SDS011;26019;47.510;19.122;2022-08-21T08:29:07;11.80;;;9.20;;
39308;SDS011;26019;47.510;19.122;2022-08-21T08:39:09;10.32;;;8.90;;
39308;SDS011;26019;47.510;19.122;2022-08-21T08:59:27;6.63;;;5.72;;
39308;SDS011;26019;47.510;19.122;2022-08-21T09:30:32;6.53;;;4.88;;
39308;SDS011;26019;47.510;19.122;2022-08-21T09:40:44;6.35;;;5.45;;
39308;SDS011;26019;47.510;19.122;2022-08-21T09:50:48;7.88;;;6.22;;
39308;SDS011;26019;47.510;19.122;2022-08-21T10:01:00;5.65;;;5.15;;
39308;SDS011;26019;47.510;19.122;2022-08-21T10:11:06;7.20;;;6.10;;
39308;SDS011;26019;47.510;19.122;2022-08-21T10:22:16;7.47;;;6.30;;
39308;SDS011;26019;47.510;19.122;2022-08-21T11:03:21;8.35;;;6.43;;
39308;SDS011;26019;47.510;19.122;2022-08-21T11:13:40;8.80;;;6.38;;
39308;SDS011;26019;47.510;19.122;2022-08-21T11:23:53;9.77;;;7.25;;
39308;SDS011;26019;47.510;19.122;2022-08-21T11:34:24;13.07;;;7.07;;
39308;SDS011;26019;47.510;19.122;2022-08-21T11:44:54;11.38;;;7.10;;
39308;SDS011;26019;47.510;19.122;2022-08-21T11:55:06;8.75;;;7.95;;
39308;SDS011;26019;47.510;19.122;2022-08-21T12:05:25;9.43;;;5.65;;
39308;SDS011;26019;47.510;19.122;2022-08-21T12:15:34;11.13;;;7.47;;
39308;SDS011;26019;47.510;19.122;2022-08-21T12:37:02;14.13;;;8.98;;
39308;SDS011;26019;47.510;19.122;2022-08-21T12:47:02;10.68;;;9.40;;
39308;SDS011;26019;47.510;19.122;2022-08-21T12:57:07;11.75;;;10.63;;
39308;SDS011;26019;47.510;19.122;2022-08-21T13:07:11;16.02;;;13.52;;
39308;SDS011;26019;47.510;19.122;2022-08-21T13:17:20;18.25;;;11.68;;
39308;SDS011;26019;47.510;19.122;2022-08-21T13:27:27;19.02;;;13.80;;
39308;SDS011;26019;47.510;19.122;2022-08-21T13:37:30;11.60;;;10.32;;
39308;SDS011;26019;47.510;19.122;2022-08-21T13:47:34;10.95;;;7.90;;
39308;SDS011;26019;47.510;19.122;2022-08-21T13:57:36;8.77;;;8.00;;
39308;SDS011;26019;47.510;19.122;2022-08-21T14:07:38;8.57;;;7.55;;
39308;SDS011;26019;47.510;19.122;2022-08-21T14:17:42;7.22;;;6.53;;
39308;SDS011;26019;47.510;19.122;2022-08-21T14:27:49;6.85;;;5.75;;
39308;SDS011;26019;47.510;19.122;2022-08-21T14:37:52;10.55;;;5.63;;
39308;SDS011;26019;47.510;19.122;2022-08-21T14:47:56;7.57;;;6.75;;
39308;SDS011;26019;47.510;19.122;2022-08-21T14:58:01;5.63;;;5.13;;
39308;SDS011;26019;47.510;19.122;2022-08-21T15:08:05;6.55;;;4.45;;
39308;SDS011;26019;47.510;19.122;2022-08-21T15:18:09;4.65;;;3.90;;
39308;SDS011;26019;47.510;19.122;2022-08-21T15:28:11;3.35;;;3.03;;
39308;SDS011;26019;47.510;19.122;2022-08-21T15:38:14;3.30;;;3.00;;
39308;SDS011;26019;47.510;19.122;2022-08-21T15:48:16;7.18;;;3.95;;
39308;SDS011;26019;47.510;19.122;2022-08-21T15:58:18;4.18;;;3.50;;
39308;SDS011;26019;47.510;19.122;2022-08-21T16:08:22;3.95;;;2.40;;
39308;SDS011;26019;47.510;19.122;2022-08-21T16:18:24;3.72;;;3.20;;
39308;SDS011;26019;47.510;19.122;2022-08-21T16:28:28;4.30;;;3.90;;
39308;SDS011;26019;47.510;19.122;2022-08-21T16:38:33;5.88;;;3.88;;
39308;SDS011;26019;47.510;19.122;2022-08-21T16:48:38;7.55;;;4.95;;
39308;SDS011;26019;47.510;19.122;2022-08-21T16:58:46;6.00;;;5.40;;
39308;SDS011;26019;47.510;19.122;2022-08-21T17:08:49;10.00;;;5.85;;
39308;SDS011;26019;47.510;19.122;2022-08-21T17:18:54;12.15;;;7.53;;
39308;SDS011;26019;47.510;19.122;2022-08-21T17:28:55;10.00;;;7.85;;
39308;SDS011;26019;47.510;19.122;2022-08-21T17:38:57;9.75;;;6.00;;
39308;SDS011;26019;47.510;19.122;2022-08-21T17:48:59;6.50;;;5.75;;
39308;SDS011;26019;47.510;19.122;2022-08-21T17:59:02;9.68;;;7.65;;
39308;SDS011;26019;47.510;19.122;2022-08-21T18:09:05;8.77;;;6.10;;
39308;SDS011;26019;47.510;19.122;2022-08-21T18:19:09;7.00;;;5.60;;
39308;SDS011;26019;47.510;19.122;2022-08-21T18:29:16;6.30;;;5.70;;
39308;SDS011;26019;47.510;19.122;2022-08-21T18:39:20;9.63;;;7.80;;
39308;SDS011;26019;47.510;19.122;2022-08-21T18:49:38;12.20;;;9.40;;
39308;SDS011;26019;47.510;19.122;2022-08-21T18:59:41;7.28;;;6.57;;
39308;SDS011;26019;47.510;19.122;2022-08-21T19:09:44;10.30;;;8.95;;
39308;SDS011;26019;47.510;19.122;2022-08-21T19:20:08;10.15;;;9.20;;
39308;SDS011;26019;47.510;19.122;2022-08-21T19:30:38;9.02;;;8.13;;
39308;SDS011;26019;47.510;19.122;2022-08-21T19:40:46;8.02;;;7.32;;
39308;SDS011;26019;47.510;19.122;2022-08-21T19:50:49;8.35;;;7.53;;
39308;SDS011;26019;47.510;19.122;2022-08-21T20:00:51;8.60;;;7.80;;
39308;SDS011;26019;47.510;19.122;2022-08-21T20:10:55;18.48;;;14.23;;
39308;SDS011;26019;47.510;19.122;2022-08-21T20:21:06;6.97;;;6.18;;
39308;SDS011;26019;47.510;19.122;2022-08-21T20:31:09;7.72;;;6.95;;
39308;SDS011;26019;47.510;19.122;2022-08-21T20:41:17;7.20;;;6.25;;
39308;SDS011;26019;47.510;19.122;2022-08-21T20:51:38;6.22;;;5.13;;
39308;SDS011;26019;47.510;19.122;2022-08-21T21:01:45;4.88;;;4.47;;
39308;SDS011;26019;47.510;19.122;2022-08-21T21:11:59;6.57;;;5.22;;
39308;SDS011;26019;47.510;19.122;2022-08-21T21:22:08;6.15;;;5.15;;
39308;SDS011;26019;47.510;19.122;2022-08-21T21:32:15;7.43;;;6.65;;
39308;SDS011;26019;47.510;19.122;2022-08-21T21:42:42;9.50;;;8.60;;
39308;SDS011;26019;47.510;19.122;2022-08-21T21:52:58;10.20;;;9.20;;
39308;SDS011;26019;47.510;19.122;2022-08-21T22:23:28;12.68;;;8.65;;
39308;SDS011;26019;47.510;19.122;2022-08-21T22:33:37;11.48;;;10.30;;
39308;SDS011;26019;47.510;19.122;2022-08-21T22:43:52;12.98;;;10.15;;
39308;SDS011;26019;47.510;19.122;2022-08-21T22:53:55;11.30;;;9.25;;
39308;SDS011;26019;47.510;19.122;2022-08-21T23:04:07;10.57;;;8.55;;
39308;SDS011;26019;47.510;19.122;2022-08-21T23:14:22;10.13;;;9.20;;
